Time;durP1;ratioP1;P1;durP2;ratioP2;P2;SDS_P1;SDS_P2;PMS_P1;PMS_P2;Temp;Humidity;BMP_temperature;BMP_pressure;BME280_temperature;BME280_humidity;BME280_pressure;Samples;Min_cycle;Max_cycle;Signal;HPM_P1;HPM_P2
2022/01/01 00:00:13;;;;;;;96.70;80.43;;;12.50;99.90;;;;;;624481;230;26639;-77
2022/01/01 00:02:41;;;;;;;96.20;76.87;;;12.60;99.90;;;;;;624400;230;26608;-78
2022/01/01 00:05:08;;;;;;;84.63;70.63;;;12.60;99.90;;;;;;625817;229;26830;-77
2022/01/01 00:07:35;;;;;;;66.50;56.50;;;12.60;99.90;;;;;;624437;230;26627;-77
2022/01/01 00:10:03;;;;;;;66.03;56.73;;;12.80;99.90;;;;;;624468;230;26912;-77
2022/01/01 00:12:30;;;;;;;56.90;47.43;;;12.80;99.90;;;;;;625767;230;26599;-77
2022/01/01 00:14:58;;;;;;;49.97;42.47;;;12.90;99.90;;;;;;624185;230;27340;-77
2022/01/01 00:17:25;;;;;;;45.93;40.90;;;12.80;99.90;;;;;;624078;230;26658;-78
2022/01/01 00:19:52;;;;;;;41.33;35.70;;;12.70;99.90;;;;;;612693;235;27102;-77
2022/01/01 00:22:20;;;;;;;37.47;32.67;;;12.70;99.90;;;;;;624101;230;26671;-77
2022/01/01 00:24:47;;;;;;;36.20;30.87;;;12.70;99.90;;;;;;625578;229;26557;-77
2022/01/01 00:27:15;;;;;;;37.03;30.57;;;12.70;99.90;;;;;;624048;230;26925;-78
2022/01/01 00:29:42;;;;;;;34.27;28.67;;;12.70;99.90;;;;;;624000;230;26632;-77
2022/01/01 00:32:09;;;;;;;30.40;26.77;;;12.70;99.90;;;;;;625396;230;26892;-77
2022/01/01 00:34:36;;;;;;;32.70;25.63;;;12.70;99.90;;;;;;624019;225;26616;-77
2022/01/01 00:37:03;;;;;;;30.17;25.43;;;12.70;99.90;;;;;;624037;230;26860;-78
2022/01/01 00:39:30;;;;;;;32.37;24.97;;;12.70;99.90;;;;;;625415;229;26636;-78
2022/01/01 00:41:58;;;;;;;29.00;24.27;;;12.70;99.90;;;;;;624014;230;26617;-78
2022/01/01 00:44:25;;;;;;;27.03;21.63;;;12.80;99.90;;;;;;624190;230;26612;-78
2022/01/01 00:46:53;;;;;;;25.07;21.43;;;12.80;99.90;;;;;;625648;229;26626;-79
2022/01/01 00:49:21;;;;;;;24.73;20.20;;;12.90;99.90;;;;;;625451;228;26622;-78
2022/01/01 00:51:49;;;;;;;26.23;22.43;;;12.80;99.90;;;;;;625447;230;26649;-78
2022/01/01 00:54:17;;;;;;;26.90;22.63;;;12.70;99.90;;;;;;626414;229;26641;-78
2022/01/01 00:56:45;;;;;;;23.33;20.27;;;12.60;99.90;;;;;;624874;230;26639;-78
2022/01/01 00:59:13;;;;;;;23.73;20.47;;;12.70;99.90;;;;;;624514;230;26629;-77
2022/01/01 01:01:41;;;;;;;21.77;19.37;;;13.00;99.90;;;;;;613175;234;26574;-79
2022/01/01 01:04:09;;;;;;;23.37;20.37;;;13.00;99.90;;;;;;624575;230;26560;-79
2022/01/01 01:06:37;;;;;;;24.90;19.97;;;13.00;99.90;;;;;;625868;229;26542;-78
2022/01/01 01:09:04;;;;;;;22.27;19.63;;;13.00;99.90;;;;;;624287;229;26650;-78
2022/01/01 01:11:31;;;;;;;21.90;19.53;;;12.90;99.90;;;;;;624282;230;26621;-78
2022/01/01 01:14:06;;;;;;;25.80;20.17;;;12.60;99.90;;;;;;612871;234;26578;-78
2022/01/01 01:16:27;;;;;;;21.53;19.30;;;12.60;99.90;;;;;;623654;230;26638;-78
2022/01/01 01:18:57;;;;;;;23.10;20.50;;;12.70;99.90;;;;;;625690;229;26624;-78
2022/01/01 01:21:23;;;;;;;22.47;19.67;;;12.70;99.90;;;;;;612874;234;26586;-79
2022/01/01 01:23:51;;;;;;;24.77;21.07;;;12.70;99.90;;;;;;624156;230;26594;-78
2022/01/01 01:26:19;;;;;;;24.63;21.03;;;12.60;99.90;;;;;;625412;229;26592;-78
2022/01/01 01:28:50;;;;;;;26.17;21.70;;;12.70;99.90;;;;;;623994;230;26596;-78
2022/01/01 01:31:15;;;;;;;27.07;21.87;;;12.70;99.90;;;;;;623829;230;26613;-78
2022/01/01 01:33:44;;;;;;;29.70;23.03;;;12.60;99.90;;;;;;625459;229;26589;-78
2022/01/01 01:36:12;;;;;;;24.90;21.27;;;12.70;99.90;;;;;;623751;226;26627;-77
2022/01/01 01:38:40;;;;;;;27.07;22.37;;;12.50;99.90;;;;;;623929;230;26602;-78
2022/01/01 01:41:08;;;;;;;27.67;22.37;;;12.60;99.90;;;;;;625303;223;26584;-78
2022/01/01 01:43:36;;;;;;;27.63;22.03;;;12.50;99.90;;;;;;623944;230;26647;-77
2022/01/01 01:46:05;;;;;;;26.63;22.47;;;12.70;99.90;;;;;;623835;230;26614;-78
2022/01/01 01:48:31;;;;;;;31.30;25.13;;;12.70;99.90;;;;;;625955;229;26884;-78
2022/01/01 01:50:59;;;;;;;27.03;22.03;;;12.50;99.90;;;;;;624511;230;26616;-78
2022/01/01 01:53:26;;;;;;;23.90;20.80;;;12.50;99.90;;;;;;624570;230;26578;-78
2022/01/01 01:55:53;;;;;;;27.10;21.33;;;12.50;99.90;;;;;;626029;229;26551;-78
2022/01/01 01:58:20;;;;;;;28.23;22.13;;;12.50;99.90;;;;;;624647;230;26589;-78
2022/01/01 02:01:10;;;;;;;29.70;21.63;;;12.40;99.90;;;;;;625822;228;26619;-78
2022/01/01 02:03:16;;;;;;;30.17;24.03;;;12.50;99.90;;;;;;625994;229;26883;-78
2022/01/01 02:05:43;;;;;;;26.73;22.07;;;12.40;99.90;;;;;;625593;230;26581;-77
2022/01/01 02:08:10;;;;;;;25.90;21.17;;;12.40;99.90;;;;;;625538;230;26810;-78
2022/01/01 02:10:37;;;;;;;26.47;21.90;;;12.50;99.90;;;;;;613833;234;26592;-78
2022/01/01 02:13:12;;;;;;;26.60;20.70;;;12.30;99.90;;;;;;625245;230;26780;-79
2022/01/01 02:18:05;;;;;;;28.93;23.27;;;12.30;99.90;;;;;;624688;230;26548;-78
2022/01/01 02:20:32;;;;;;;30.80;24.90;;;12.10;99.90;;;;;;624457;230;26625;-78
2022/01/01 02:23:01;;;;;;;29.70;24.77;;;12.10;99.90;;;;;;625935;224;26603;-78
2022/01/01 02:25:26;;;;;;;29.37;22.63;;;12.10;99.90;;;;;;624299;229;26624;-79
2022/01/01 02:27:55;;;;;;;32.27;25.03;;;12.20;99.90;;;;;;624454;230;26621;-79
2022/01/01 02:30:22;;;;;;;35.23;26.30;;;12.10;99.90;;;;;;625812;228;26604;-78
2022/01/01 02:32:50;;;;;;;31.30;24.03;;;12.20;99.90;;;;;;624392;230;26661;-79
2022/01/01 02:35:18;;;;;;;29.73;21.73;;;12.20;99.90;;;;;;624267;226;26598;-78
2022/01/01 02:37:46;;;;;;;28.83;21.90;;;12.30;99.90;;;;;;612681;235;26655;-79
2022/01/01 02:40:14;;;;;;;26.20;20.57;;;12.40;99.90;;;;;;624085;230;26652;-79
2022/01/01 02:42:43;;;;;;;25.50;19.40;;;12.40;99.90;;;;;;625586;230;26589;-79
2022/01/01 02:45:11;;;;;;;25.77;20.10;;;12.40;99.90;;;;;;623968;230;26652;-79
2022/01/01 02:47:38;;;;;;;23.57;19.77;;;12.40;99.90;;;;;;624112;230;26624;-80
2022/01/01 02:50:06;;;;;;;30.93;22.27;;;12.50;99.90;;;;;;625439;229;26652;-79
2022/01/01 02:52:33;;;;;;;27.20;19.80;;;12.50;99.90;;;;;;624181;230;26603;-79
2022/01/01 02:55:00;;;;;;;27.70;20.77;;;12.60;99.90;;;;;;624118;230;26888;-80
2022/01/01 02:57:28;;;;;;;27.80;21.00;;;12.50;99.90;;;;;;625615;229;26610;-80
2022/01/01 02:59:55;;;;;;;26.57;19.57;;;12.50;99.90;;;;;;624151;230;26957;-79
2022/01/01 03:02:22;;;;;;;31.97;21.50;;;12.60;99.90;;;;;;624183;230;26588;-80
2022/01/01 03:04:49;;;;;;;24.30;19.90;;;12.50;99.90;;;;;;625546;229;26592;-80
2022/01/01 03:07:16;;;;;;;25.60;19.67;;;12.40;99.90;;;;;;624064;230;26629;-80
2022/01/01 03:09:44;;;;;;;26.67;20.40;;;12.40;99.90;;;;;;624073;225;26640;-79
2022/01/01 03:12:12;;;;;;;23.37;18.40;;;12.30;99.90;;;;;;613723;232;26650;-80
2022/01/01 03:14:40;;;;;;;26.97;18.83;;;12.30;99.90;;;;;;626845;228;26574;-80
2022/01/01 03:17:08;;;;;;;26.83;19.57;;;12.30;99.90;;;;;;625089;230;26619;-80
2022/01/01 03:19:36;;;;;;;25.97;19.27;;;12.40;99.90;;;;;;626375;229;26628;-80
2022/01/01 03:22:04;;;;;;;31.77;21.70;;;12.40;99.90;;;;;;624773;230;26596;-79
2022/01/01 03:24:31;;;;;;;25.47;22.57;;;12.40;99.90;;;;;;624744;230;26556;-80
2022/01/01 03:26:59;;;;;;;27.03;20.87;;;12.30;99.90;;;;;;613213;234;26582;-80
2022/01/01 03:29:28;;;;;;;29.73;22.83;;;12.30;99.90;;;;;;625035;230;26584;-79
2022/01/01 03:31:55;;;;;;;33.90;24.40;;;12.40;99.90;;;;;;626320;229;26562;-80
2022/01/01 03:34:23;;;;;;;32.90;22.67;;;12.40;99.90;;;;;;624896;230;26540;-80
2022/01/01 03:36:51;;;;;;;31.77;23.43;;;12.40;99.90;;;;;;624967;230;26581;-80
2022/01/01 03:39:19;;;;;;;27.87;21.60;;;12.30;99.90;;;;;;626380;229;26569;-80
2022/01/01 03:41:46;;;;;;;30.40;21.60;;;12.30;99.90;;;;;;624981;230;26539;-79
2022/01/01 03:44:14;;;;;;;29.33;20.43;;;12.20;99.90;;;;;;624994;230;26599;-79
2022/01/01 03:46:42;;;;;;;26.60;19.60;;;12.20;99.90;;;;;;625864;228;26580;-79
2022/01/01 03:49:10;;;;;;;27.63;20.40;;;12.20;99.90;;;;;;624157;230;26628;-80
2022/01/01 03:51:38;;;;;;;33.50;21.07;;;12.20;99.90;;;;;;624204;230;26610;-80
2022/01/01 03:54:06;;;;;;;27.73;22.83;;;12.30;99.90;;;;;;625585;229;26626;-80
2022/01/01 03:56:37;;;;;;;33.10;23.90;;;12.30;99.90;;;;;;624001;226;26638;-80
2022/01/01 03:59:02;;;;;;;28.27;21.00;;;12.40;99.90;;;;;;623795;229;26649;-79
2022/01/01 04:01:30;;;;;;;24.27;17.90;;;12.40;99.90;;;;;;612777;235;26677;-80
2022/01/01 04:03:57;;;;;;;25.93;14.53;;;12.40;99.90;;;;;;624111;230;26647;-79
2022/01/01 04:06:25;;;;;;;21.50;16.10;;;12.00;99.90;;;;;;625575;229;26578;-80
2022/01/01 04:08:53;;;;;;;20.60;14.50;;;12.40;99.90;;;;;;624062;230;26617;-80
2022/01/01 04:11:21;;;;;;;21.93;14.03;;;12.60;99.90;;;;;;624066;230;26840;-79
2022/01/01 04:13:49;;;;;;;21.90;14.97;;;12.60;99.90;;;;;;625476;229;26649;-79
2022/01/01 04:16:18;;;;;;;25.97;14.67;;;12.50;99.90;;;;;;623998;230;26628;-79
2022/01/01 04:18:45;;;;;;;20.37;15.27;;;12.70;99.90;;;;;;623980;230;26600;-79
2022/01/01 04:21:12;;;;;;;19.23;14.70;;;12.90;99.90;;;;;;625434;229;26611;-78
2022/01/01 04:23:40;;;;;;;20.03;13.70;;;13.10;99.90;;;;;;625046;228;26629;-80
2022/01/01 04:26:09;;;;;;;19.23;13.07;;;13.00;99.90;;;;;;625396;230;26590;-80
2022/01/01 04:28:36;;;;;;;18.87;13.03;;;12.90;99.90;;;;;;626434;229;26612;-79
2022/01/01 04:31:04;;;;;;;16.40;13.00;;;12.90;99.90;;;;;;625014;230;26616;-79
2022/01/01 04:33:32;;;;;;;19.47;13.00;;;13.00;99.90;;;;;;624786;230;26548;-79
2022/01/01 04:36:00;;;;;;;20.47;13.23;;;13.00;99.90;;;;;;626203;229;26549;-80
2022/01/01 04:41:05;;;;;;;17.47;13.83;;;13.20;99.90;;;;;;624680;230;26583;-79
2022/01/01 04:43:32;;;;;;;21.27;14.20;;;13.20;99.90;;;;;;625275;229;26577;-79
2022/01/01 04:46:00;;;;;;;18.27;13.80;;;13.00;99.90;;;;;;624452;230;26568;-79
2022/01/01 04:48:28;;;;;;;17.33;13.43;;;12.90;99.90;;;;;;624447;230;26597;-81
2022/01/01 04:50:56;;;;;;;20.87;14.47;;;12.70;99.90;;;;;;625966;224;26558;-79
2022/01/01 04:53:24;;;;;;;22.47;15.80;;;12.50;99.90;;;;;;624525;225;26594;-79
2022/01/01 04:55:52;;;;;;;26.67;19.27;;;12.30;99.90;;;;;;624457;230;26608;-80
2022/01/01 04:58:20;;;;;;;28.10;19.10;;;12.30;99.90;;;;;;625905;229;26594;-80
2022/01/01 05:00:48;;;;;;;29.10;21.53;;;12.50;99.90;;;;;;624151;230;26667;-80
2022/01/01 05:03:16;;;;;;;26.13;20.40;;;12.40;99.90;;;;;;624198;230;26885;-79
2022/01/01 05:05:44;;;;;;;29.87;18.27;;;12.50;99.90;;;;;;625634;229;26614;-79
2022/01/01 05:08:12;;;;;;;20.77;17.03;;;12.60;99.90;;;;;;624226;230;26600;-79
2022/01/01 05:10:40;;;;;;;20.33;15.03;;;12.80;99.90;;;;;;624101;230;26632;-79
2022/01/01 05:13:08;;;;;;;23.50;14.97;;;12.80;99.90;;;;;;625600;223;26602;-80
2022/01/01 05:15:36;;;;;;;19.67;14.73;;;12.80;99.90;;;;;;624162;230;26604;-79
2022/01/01 05:18:04;;;;;;;24.23;15.40;;;12.90;99.90;;;;;;624178;230;26613;-79
2022/01/01 05:20:32;;;;;;;23.53;14.53;;;12.90;99.90;;;;;;625557;229;26611;-80
2022/01/01 05:23:00;;;;;;;23.47;14.33;;;13.00;99.90;;;;;;624074;230;26644;-78
2022/01/01 05:25:28;;;;;;;21.27;16.07;;;13.00;99.90;;;;;;624056;230;26615;-79
2022/01/01 05:27:54;;;;;;;20.57;14.57;;;12.90;99.90;;;;;;625507;229;26591;-79
2022/01/01 05:30:22;;;;;;;24.93;15.07;;;12.80;99.90;;;;;;624199;230;26624;-79
2022/01/01 05:32:50;;;;;;;21.37;15.50;;;12.80;99.90;;;;;;624312;230;26622;-79
2022/01/01 05:35:18;;;;;;;24.07;15.53;;;12.80;99.90;;;;;;626749;227;26593;-79
2022/01/01 05:37:47;;;;;;;21.23;14.97;;;12.90;99.90;;;;;;625470;230;26604;-79
2022/01/01 05:40:14;;;;;;;20.20;14.67;;;12.90;99.90;;;;;;625112;230;26653;-79
2022/01/01 05:42:41;;;;;;;23.53;16.20;;;12.90;99.90;;;;;;626555;228;26583;-80
2022/01/01 05:45:09;;;;;;;21.47;15.20;;;12.80;99.90;;;;;;624965;230;26794;-79
2022/01/01 05:47:36;;;;;;;23.50;15.43;;;12.70;99.90;;;;;;624821;230;26565;-79
2022/01/01 05:50:03;;;;;;;19.23;15.37;;;12.80;99.90;;;;;;626170;229;26570;-80
2022/01/01 05:52:31;;;;;;;26.83;16.47;;;12.50;99.90;;;;;;624779;230;26930;-79
2022/01/01 05:54:59;;;;;;;21.17;15.63;;;12.60;99.90;;;;;;624517;230;27451;-79
2022/01/01 05:57:26;;;;;;;24.10;15.43;;;12.60;99.90;;;;;;625920;229;27086;-79
2022/01/01 05:59:53;;;;;;;22.20;16.03;;;12.60;99.90;;;;;;624459;230;26657;-79
2022/01/01 06:02:21;;;;;;;25.97;16.00;;;12.80;99.90;;;;;;624544;230;26867;-79
2022/01/01 06:04:48;;;;;;;26.27;14.97;;;13.00;99.90;;;;;;625930;229;26602;-79
2022/01/01 06:07:15;;;;;;;25.37;14.90;;;13.00;99.90;;;;;;624449;230;26842;-79
2022/01/01 06:09:45;;;;;;;29.13;16.63;;;12.80;99.90;;;;;;624410;230;26836;-79
2022/01/01 06:12:10;;;;;;;23.23;15.70;;;12.80;99.90;;;;;;625460;229;26842;-79
2022/01/01 06:14:37;;;;;;;20.60;14.97;;;12.90;99.90;;;;;;624104;230;26605;-79
2022/01/01 06:17:04;;;;;;;27.40;15.60;;;12.90;99.90;;;;;;624131;230;26893;-79
2022/01/01 06:19:31;;;;;;;22.73;15.70;;;12.70;99.90;;;;;;625504;229;26868;-79
2022/01/01 06:21:58;;;;;;;26.23;14.93;;;12.70;99.90;;;;;;624106;230;26666;-79
2022/01/01 06:24:25;;;;;;;27.80;14.57;;;12.90;99.90;;;;;;624088;230;26848;-80
2022/01/01 06:26:53;;;;;;;20.53;14.53;;;12.80;99.90;;;;;;625532;229;26600;-79
2022/01/01 06:29:20;;;;;;;21.77;14.77;;;13.00;99.90;;;;;;624083;230;26640;-79
2022/01/01 06:31:47;;;;;;;25.70;15.43;;;13.00;99.90;;;;;;624107;230;26617;-79
2022/01/01 06:34:14;;;;;;;23.53;14.83;;;12.80;99.90;;;;;;625585;229;26602;-79
2022/01/01 06:36:42;;;;;;;24.37;14.83;;;13.00;99.90;;;;;;624112;230;26676;-79
2022/01/01 06:39:10;;;;;;;21.33;14.77;;;13.00;99.90;;;;;;624128;230;26633;-79
2022/01/01 06:41:38;;;;;;;21.97;14.63;;;12.80;99.90;;;;;;612709;235;26671;-78
2022/01/01 06:44:07;;;;;;;27.07;15.77;;;12.90;99.90;;;;;;618833;230;26612;-80
2022/01/01 06:46:35;;;;;;;25.30;15.30;;;12.80;99.90;;;;;;622506;229;26566;-81
2022/01/01 06:49:03;;;;;;;26.40;14.97;;;13.00;99.90;;;;;;635708;226;26609;-76
2022/01/01 06:51:32;;;;;;;20.67;14.73;;;13.20;99.90;;;;;;622769;230;26676;-76
2022/01/01 06:53:58;;;;;;;24.33;14.93;;;13.30;99.90;;;;;;634215;226;26616;-76
2022/01/01 06:56:26;;;;;;;21.73;15.20;;;13.10;99.90;;;;;;622276;231;26638;-77
2022/01/01 06:58:54;;;;;;;20.33;14.60;;;13.10;99.90;;;;;;620398;231;26584;-75
2022/01/01 07:01:22;;;;;;;23.13;16.10;;;12.90;99.90;;;;;;622261;230;26540;-76
2022/01/01 07:03:50;;;;;;;27.67;16.43;;;12.80;99.90;;;;;;633980;227;26520;-76
2022/01/01 07:06:18;;;;;;;25.77;16.47;;;12.80;99.90;;;;;;633593;227;26621;-76
2022/01/01 07:08:46;;;;;;;22.70;15.53;;;12.80;99.90;;;;;;633555;227;26586;-76
2022/01/01 07:11:13;;;;;;;23.20;16.23;;;12.90;99.90;;;;;;633695;227;26600;-76
2022/01/01 07:13:41;;;;;;;23.40;16.07;;;12.80;99.90;;;;;;633624;227;26600;-75
2022/01/01 07:16:09;;;;;;;26.73;16.03;;;12.70;99.90;;;;;;633789;227;26592;-76
2022/01/01 07:18:37;;;;;;;22.40;14.97;;;12.70;99.90;;;;;;633674;222;26603;-77
2022/01/01 07:21:05;;;;;;;25.40;14.87;;;12.80;99.90;;;;;;633765;227;26600;-76
2022/01/01 07:23:33;;;;;;;24.63;14.83;;;12.80;99.90;;;;;;633479;227;26545;-76
2022/01/01 07:26:01;;;;;;;23.50;15.07;;;13.10;99.90;;;;;;633502;227;26538;-76
2022/01/01 07:28:28;;;;;;;22.90;14.73;;;12.80;99.90;;;;;;633418;227;26545;-76
2022/01/01 07:30:56;;;;;;;21.57;14.30;;;12.80;99.90;;;;;;633418;227;26566;-76
2022/01/01 07:33:24;;;;;;;23.80;15.00;;;12.90;99.90;;;;;;633336;227;26557;-76
2022/01/01 07:35:55;;;;;;;23.80;14.40;;;12.90;99.90;;;;;;633377;227;26538;-76
2022/01/01 07:38:22;;;;;;;27.50;14.60;;;13.00;99.90;;;;;;633215;227;26546;-76
2022/01/01 07:40:48;;;;;;;25.03;15.07;;;12.90;99.90;;;;;;633272;227;26570;-76
2022/01/01 07:43:16;;;;;;;19.70;14.17;;;13.00;99.90;;;;;;633213;227;26607;-76
2022/01/01 07:45:44;;;;;;;26.00;14.70;;;13.00;99.90;;;;;;633715;227;26559;-76
2022/01/01 07:48:12;;;;;;;24.13;14.50;;;13.10;99.90;;;;;;633291;227;26545;-75
2022/01/01 07:50:41;;;;;;;24.20;15.50;;;13.00;99.90;;;;;;633303;227;26577;-75
2022/01/01 07:53:09;;;;;;;23.60;15.17;;;12.90;99.90;;;;;;633414;227;26542;-76
2022/01/01 07:55:36;;;;;;;22.20;14.70;;;12.90;99.90;;;;;;633312;227;26565;-76
2022/01/01 07:58:05;;;;;;;23.63;14.87;;;12.90;99.90;;;;;;634056;225;26544;-76
2022/01/01 08:00:32;;;;;;;30.37;15.30;;;12.90;99.90;;;;;;634665;226;26640;-76
2022/01/01 08:03:01;;;;;;;27.03;14.43;;;13.00;99.90;;;;;;634335;226;26593;-76
2022/01/01 08:05:29;;;;;;;23.97;15.70;;;13.10;99.90;;;;;;634213;226;26591;-76
2022/01/01 08:07:56;;;;;;;25.67;15.73;;;13.00;99.90;;;;;;634031;226;26541;-76
2022/01/01 08:10:23;;;;;;;23.23;14.50;;;12.90;99.90;;;;;;633919;227;26804;-76
2022/01/01 08:12:51;;;;;;;26.33;15.87;;;12.80;99.90;;;;;;633978;226;26539;-76
2022/01/01 08:15:18;;;;;;;20.23;14.27;;;12.90;99.90;;;;;;633957;227;26844;-76
2022/01/01 08:17:46;;;;;;;30.13;15.90;;;12.80;99.90;;;;;;622044;227;27065;-76
2022/01/01 08:20:13;;;;;;;25.23;15.43;;;12.80;99.90;;;;;;633512;227;26842;-76
2022/01/01 08:22:40;;;;;;;23.00;15.73;;;13.00;99.90;;;;;;633610;227;26803;-76
2022/01/01 08:25:08;;;;;;;24.23;16.33;;;13.10;99.90;;;;;;633663;227;26583;-76
2022/01/01 08:27:36;;;;;;;29.30;16.50;;;13.00;99.90;;;;;;633697;227;26821;-76
2022/01/01 08:30:03;;;;;;;27.80;16.43;;;13.20;99.90;;;;;;633630;227;26636;-76
2022/01/01 08:32:30;;;;;;;25.80;16.00;;;13.50;99.90;;;;;;633607;227;26816;-76
2022/01/01 08:34:57;;;;;;;23.90;15.93;;;13.20;99.90;;;;;;633369;227;27352;-76
2022/01/01 08:37:25;;;;;;;28.17;16.93;;;13.30;99.90;;;;;;633229;227;26547;-76
2022/01/01 08:39:52;;;;;;;25.10;15.97;;;13.20;99.90;;;;;;633195;227;26629;-76
2022/01/01 08:42:19;;;;;;;29.33;17.20;;;13.10;99.90;;;;;;633226;227;26550;-76
2022/01/01 08:44:47;;;;;;;30.60;18.20;;;13.00;99.90;;;;;;633348;227;26538;-76
2022/01/01 08:47:13;;;;;;;27.03;17.07;;;13.00;99.90;;;;;;633154;227;26791;-76
2022/01/01 08:49:41;;;;;;;27.60;18.43;;;13.10;99.90;;;;;;633256;227;26566;-76
2022/01/01 08:52:11;;;;;;;30.37;17.70;;;13.00;99.90;;;;;;633295;227;26542;-76
2022/01/01 08:54:37;;;;;;;29.50;18.30;;;13.00;99.90;;;;;;633192;227;26948;-76
2022/01/01 08:57:05;;;;;;;27.87;16.87;;;12.90;99.90;;;;;;633378;227;26542;-75
2022/01/01 08:59:33;;;;;;;36.20;18.13;;;13.10;99.90;;;;;;633368;227;26813;-75
2022/01/01 09:02:00;;;;;;;23.33;15.63;;;13.10;99.90;;;;;;633413;223;26780;-76
2022/01/01 09:04:27;;;;;;;23.77;16.27;;;13.10;99.90;;;;;;633422;227;26562;-75
2022/01/01 09:06:54;;;;;;;27.70;16.53;;;13.10;99.90;;;;;;633392;227;26902;-75
2022/01/01 09:09:21;;;;;;;25.83;16.40;;;13.30;99.90;;;;;;633856;225;26581;-76
2022/01/01 09:11:49;;;;;;;27.50;17.07;;;13.30;99.90;;;;;;634852;226;26823;-75
2022/01/01 09:14:16;;;;;;;26.83;16.50;;;13.20;99.90;;;;;;634522;226;26594;-76
2022/01/01 09:16:43;;;;;;;22.47;15.70;;;13.20;99.90;;;;;;634286;226;27095;-76
2022/01/01 09:19:10;;;;;;;30.60;17.27;;;13.10;99.90;;;;;;634170;226;26563;-76
2022/01/01 09:21:38;;;;;;;28.20;17.83;;;13.20;99.90;;;;;;634031;227;26578;-75
2022/01/01 09:24:05;;;;;;;22.33;15.03;;;13.30;99.90;;;;;;634036;226;26542;-76
2022/01/01 09:26:32;;;;;;;33.20;17.97;;;13.40;99.90;;;;;;634027;227;26841;-76
2022/01/01 09:28:59;;;;;;;29.73;17.47;;;13.10;99.90;;;;;;633740;227;26633;-75
2022/01/01 09:31:27;;;;;;;30.13;16.80;;;13.20;99.90;;;;;;633775;227;26852;-75
2022/01/01 09:33:54;;;;;;;30.30;17.37;;;13.50;99.90;;;;;;633724;223;26581;-75
2022/01/01 09:36:21;;;;;;;24.10;15.80;;;13.20;99.90;;;;;;633798;227;26812;-76
2022/01/01 09:38:48;;;;;;;27.50;17.63;;;13.20;99.90;;;;;;633719;227;26582;-75
2022/01/01 09:41:15;;;;;;;28.27;16.37;;;13.20;99.90;;;;;;633761;227;26577;-76
2022/01/01 09:43:43;;;;;;;32.93;18.30;;;13.30;99.90;;;;;;633792;227;26580;-76
2022/01/01 09:46:10;;;;;;;29.57;18.23;;;13.30;99.90;;;;;;633526;227;26528;-76
2022/01/01 09:48:37;;;;;;;29.77;18.20;;;13.30;99.90;;;;;;633168;227;26767;-77
2022/01/01 09:51:04;;;;;;;30.20;17.33;;;13.30;99.90;;;;;;633434;227;26857;-75
2022/01/01 09:53:32;;;;;;;29.80;19.60;;;13.40;99.90;;;;;;633447;227;26525;-77
2022/01/01 09:56:00;;;;;;;28.00;17.60;;;13.30;99.90;;;;;;633445;227;26819;-74
2022/01/01 09:58:26;;;;;;;30.70;18.00;;;13.50;99.90;;;;;;633331;227;26538;-75
2022/01/01 10:00:53;;;;;;;37.87;19.67;;;13.30;99.90;;;;;;633798;227;26597;-76
2022/01/01 10:03:26;;;;;;;33.87;20.63;;;13.50;99.90;;;;;;633949;227;26502;-75
2022/01/01 10:05:57;;;;;;;29.53;18.97;;;13.40;99.90;;;;;;634002;227;26504;-75
2022/01/01 10:08:25;;;;;;;27.47;18.13;;;13.20;99.90;;;;;;633961;227;26510;-75
2022/01/01 10:10:53;;;;;;;29.53;18.37;;;13.20;99.90;;;;;;633969;227;26533;-75
2022/01/01 10:13:26;;;;;;;29.77;19.37;;;13.30;99.90;;;;;;633988;227;26514;-75
2022/01/01 10:15:54;;;;;;;29.57;20.13;;;13.20;99.90;;;;;;633983;227;26498;-75
2022/01/01 10:18:27;;;;;;;32.27;19.77;;;13.10;99.90;;;;;;633872;227;26752;-75
2022/01/01 10:20:56;;;;;;;30.23;18.30;;;13.40;99.90;;;;;;633925;224;26534;-75
2022/01/01 10:23:28;;;;;;;30.30;19.47;;;13.50;99.90;;;;;;634650;226;26625;-75
2022/01/01 10:28:24;;;;;;;35.00;22.33;;;13.40;99.90;;;;;;634325;227;26847;-75
2022/01/01 10:30:52;;;;;;;35.03;20.90;;;13.30;99.90;;;;;;634288;226;26562;-75
2022/01/01 10:33:19;;;;;;;34.07;23.53;;;13.50;99.90;;;;;;634220;226;26544;-75
2022/01/01 10:35:47;;;;;;;39.77;24.50;;;13.30;99.90;;;;;;634156;227;26546;-75
2022/01/01 10:38:15;;;;;;;42.73;25.67;;;13.30;99.90;;;;;;634131;227;26558;-76
2022/01/01 10:40:42;;;;;;;47.30;27.03;;;13.30;99.90;;;;;;633822;227;26657;-75
2022/01/01 10:43:10;;;;;;;38.00;25.10;;;13.10;99.90;;;;;;633989;227;26908;-75
2022/01/01 10:45:38;;;;;;;52.43;29.27;;;13.10;99.90;;;;;;633822;227;26571;-75
2022/01/01 10:48:15;;;;;;;48.00;29.50;;;13.20;99.90;;;;;;633683;227;26863;-76
2022/01/01 10:50:35;;;;;;;42.97;27.83;;;13.20;99.90;;;;;;633170;227;26684;-75
2022/01/01 10:53:09;;;;;;;42.47;27.73;;;13.20;99.90;;;;;;633989;227;26623;-85
2022/01/01 10:55:40;;;;;;;41.03;22.43;;;13.20;99.90;;;;;;633920;227;26604;-76
2022/01/01 10:58:07;;;;;;;43.53;25.83;;;13.10;99.90;;;;;;633501;227;26534;-76
2022/01/01 11:00:37;;;;;;;36.17;25.37;;;13.20;99.90;;;;;;639143;222;26844;-77
2022/01/01 11:03:05;;;;;;;36.53;22.00;;;13.30;99.90;;;;;;642833;221;26577;-76
2022/01/01 11:05:33;;;;;;;31.60;19.23;;;13.30;99.90;;;;;;640546;224;26787;-76
2022/01/01 11:08:01;;;;;;;33.00;20.43;;;13.30;99.90;;;;;;640592;224;26494;-77
2022/01/01 11:10:29;;;;;;;38.83;23.70;;;13.20;99.90;;;;;;640626;222;26512;-77
2022/01/01 11:12:57;;;;;;;39.13;24.10;;;13.20;99.90;;;;;;640707;224;26524;-76
2022/01/01 11:15:25;;;;;;;39.10;23.50;;;13.20;99.90;;;;;;640553;224;26568;-76
2022/01/01 11:17:53;;;;;;;40.03;21.87;;;13.00;99.90;;;;;;644659;221;26570;-77
2022/01/01 11:20:21;;;;;;;37.23;21.00;;;13.10;99.90;;;;;;643343;221;26575;-77
2022/01/01 11:22:49;;;;;;;32.67;21.47;;;13.10;99.90;;;;;;640833;222;26577;-76
2022/01/01 11:25:17;;;;;;;36.27;23.07;;;13.20;99.90;;;;;;647203;222;26581;-76
2022/01/01 11:27:45;;;;;;;31.67;21.53;;;13.20;99.90;;;;;;647152;222;26636;-77
2022/01/01 11:30:13;;;;;;;38.30;21.63;;;13.40;99.90;;;;;;647099;222;26600;-76
2022/01/01 11:32:43;;;;;;;40.63;23.83;;;13.30;99.90;;;;;;646557;220;26839;-76
2022/01/01 11:35:11;;;;;;;37.17;23.47;;;13.40;99.90;;;;;;646123;221;26776;-76
2022/01/01 11:38:00;;;;;;;37.43;23.93;;;13.40;99.90;;;;;;640530;221;26584;-77
2022/01/01 11:40:27;;;;;;;41.50;23.93;;;13.40;99.90;;;;;;643966;221;26602;-74
2022/01/01 11:42:55;;;;;;;42.03;23.33;;;13.60;99.90;;;;;;641906;222;26535;-76
2022/01/01 11:45:44;;;;;;;35.43;21.57;;;13.60;99.90;;;;;;637874;224;26515;-77
2022/01/01 11:48:31;;;;;;;34.00;21.90;;;13.60;99.90;;;;;;637876;224;26508;-76
2022/01/01 11:50:59;;;;;;;33.50;18.80;;;13.90;99.90;;;;;;636301;225;26555;-76
2022/01/01 11:53:28;;;;;;;29.17;17.03;;;14.10;99.90;;;;;;635075;225;26547;-76
2022/01/01 11:56:06;;;;;;;29.77;16.63;;;14.10;99.90;;;;;;637447;219;26586;-76
2022/01/01 11:58:46;;;;;;;29.53;16.87;;;14.00;99.90;;;;;;637676;224;26584;-80
2022/01/01 12:01:13;;;;;;;27.90;16.53;;;14.00;99.90;;;;;;637509;224;26606;-76
2022/01/01 12:03:47;;;;;;;30.13;16.80;;;14.00;99.90;;;;;;637350;219;26589;-76
2022/01/01 12:06:14;;;;;;;28.93;17.57;;;13.90;99.90;;;;;;637484;224;26795;-77
2022/01/01 12:08:41;;;;;;;30.20;17.37;;;14.00;99.90;;;;;;637540;221;26552;-79
2022/01/01 12:11:08;;;;;;;30.37;16.63;;;13.80;99.90;;;;;;638221;221;26567;-76
2022/01/01 12:13:38;;;;;;;27.93;16.30;;;13.70;99.90;;;;;;637174;224;26527;-76
2022/01/01 12:16:03;;;;;;;25.57;16.97;;;13.90;99.90;;;;;;636881;225;26864;-76
2022/01/01 12:18:30;;;;;;;29.80;17.03;;;14.00;99.90;;;;;;634619;225;26578;-76
2022/01/01 12:21:01;;;;;;;32.97;16.83;;;13.90;99.90;;;;;;636973;219;26600;-76
2022/01/01 12:23:24;;;;;;;22.97;16.43;;;13.80;99.90;;;;;;636773;225;26774;-76
2022/01/01 12:25:52;;;;;;;33.77;17.53;;;13.70;99.90;;;;;;637144;224;26573;-76
2022/01/01 12:28:19;;;;;;;26.90;17.73;;;13.70;99.90;;;;;;637049;226;26584;-76
2022/01/01 12:30:48;;;;;;;30.07;16.73;;;13.60;99.90;;;;;;636897;222;26604;-77
2022/01/01 12:33:21;;;;;;;25.77;15.43;;;13.60;99.90;;;;;;637099;223;26555;-76
2022/01/01 12:35:49;;;;;;;26.47;16.40;;;13.60;99.90;;;;;;637055;224;26646;-76
2022/01/01 12:38:19;;;;;;;28.60;15.33;;;13.50;99.90;;;;;;636964;225;26569;-76